createdAt,value
2022-08-26T00:08:56.966Z,960.5
2022-08-26T00:23:59.192Z,960.34
2022-08-26T00:39:01.925Z,960.56
2022-08-26T00:54:05.346Z,960.61
2022-08-26T01:09:07.768Z,960.81
2022-08-26T01:24:10.320Z,960.84
2022-08-26T01:39:12.613Z,960.93
2022-08-26T01:54:14.856Z,960.75
2022-08-26T02:09:17.057Z,960.86
2022-08-26T02:24:19.233Z,960.93
2022-08-26T02:39:22.289Z,961.17
2022-08-26T02:54:24.692Z,961.1
2022-08-26T03:09:26.873Z,961.35
2022-08-26T03:24:29.184Z,961.98
2022-08-26T03:39:32.578Z,962.07
2022-08-26T03:54:34.865Z,962.04
2022-08-26T04:09:37.159Z,961.8
2022-08-26T04:24:39.673Z,961.98
2022-08-26T04:39:41.920Z,962.03
2022-08-26T04:54:44.146Z,962.11
2022-08-26T05:09:46.352Z,962.35
2022-08-26T05:24:48.541Z,962.12
2022-08-26T05:39:51.343Z,962.1
2022-08-26T05:54:53.790Z,961.98
2022-08-26T06:10:15.172Z,961.78
2022-08-26T06:25:31.060Z,961.72
2022-08-26T06:40:33.482Z,961.81
2022-08-26T06:55:37.408Z,961.88
2022-08-26T07:10:39.642Z,961.91
2022-08-26T07:25:42.177Z,961.83
2022-08-26T07:40:45.711Z,961.94
2022-08-26T07:55:47.895Z,961.95
2022-08-26T08:10:50.095Z,961.96
2022-08-26T08:25:52.317Z,961.89
2022-08-26T08:40:54.548Z,961.81
2022-08-26T08:55:56.754Z,961.76
2022-08-26T09:10:59.136Z,961.74
2022-08-26T09:26:01.360Z,961.69
2022-08-26T09:41:03.545Z,961.61
2022-08-26T09:56:07.451Z,961.47
2022-08-26T10:11:10.875Z,961.41
2022-08-26T10:26:13.106Z,961.44
2022-08-26T10:41:15.878Z,961.39
2022-08-26T10:56:19.441Z,961.36
2022-08-26T11:11:21.653Z,961.37
2022-08-26T11:26:36.259Z,961.5
2022-08-26T11:41:58.206Z,961.5
2022-08-26T11:57:02.870Z,961.36
2022-08-26T12:12:12.111Z,961.33
2022-08-26T12:27:14.455Z,961.35
2022-08-26T12:42:16.681Z,961.37
2022-08-26T12:57:18.886Z,961.3
2022-08-26T13:12:21.133Z,961.33
2022-08-26T13:27:23.323Z,961.43
2022-08-26T13:42:25.538Z,961.47
2022-08-26T13:57:27.739Z,961.64
2022-08-26T14:12:29.998Z,961.63
2022-08-26T14:27:32.235Z,961.65
2022-08-26T14:42:34.618Z,961.42
2022-08-26T14:57:36.848Z,961.23
2022-08-26T15:12:39.105Z,961.19
2022-08-26T15:27:41.327Z,961.11
2022-08-26T15:42:43.581Z,961.06
2022-08-26T15:57:49.837Z,960.77
2022-08-26T16:12:52.187Z,960.54
2022-08-26T16:27:54.387Z,960.4
2022-08-26T16:42:56.651Z,960.25
2022-08-26T16:57:58.850Z,960.16
2022-08-26T17:13:01.418Z,959.97
2022-08-26T17:28:03.619Z,959.74
2022-08-26T17:43:11.680Z,959.5
2022-08-26T17:58:14.931Z,959.19
2022-08-26T18:13:17.198Z,958.87
2022-08-26T18:28:19.416Z,958.64
2022-08-26T18:43:21.617Z,958.33
2022-08-26T18:58:23.855Z,958.02
2022-08-26T19:13:26.091Z,957.68
2022-08-26T19:28:28.315Z,957.32
2022-08-26T19:43:30.523Z,956.97
2022-08-26T19:58:34.436Z,956.63
2022-08-26T20:13:36.700Z,956.16
2022-08-26T20:28:39.013Z,955.87
2022-08-26T20:43:41.243Z,955.66
2022-08-26T20:58:43.479Z,955.37
2022-08-26T21:14:03.910Z,955.11
2022-08-26T21:29:06.963Z,954.84
2022-08-26T21:44:09.227Z,954.54
2022-08-26T21:59:11.483Z,954.23
2022-08-26T22:14:13.674Z,953.92
2022-08-26T22:29:15.873Z,953.57
2022-08-26T22:44:18.269Z,953.22
2022-08-26T22:59:20.527Z,952.96
2022-08-26T23:14:22.841Z,952.88
2022-08-26T23:29:25.078Z,952.8
2022-08-26T23:44:27.528Z,952.53
2022-08-26T23:59:29.757Z,952.4
